Time;durP1;ratioP1;P1;durP2;ratioP2;P2;SDS_P1;SDS_P2;PMS_P1;PMS_P2;Temp;Humidity;BMP_temperature;BMP_pressure;BME280_temperature;BME280_humidity;BME280_pressure;Samples;Min_cycle;Max_cycle;Signal;HPM_P1;HPM_P2
2024/04/01 00:00:11;;;;;;;0.47;0.00;;;14.60;92.30;;;;;;4971391;28;20507;-67
2024/04/01 00:02:37;;;;;;;0.10;0.00;;;14.60;92.20;;;;;;4980717;28;20485;-66
2024/04/01 00:05:02;;;;;;;1.15;0.10;;;14.60;92.30;;;;;;4995329;28;20030;-67
2024/04/01 00:07:28;;;;;;;7.22;0.30;;;14.60;92.10;;;;;;5003228;28;20052;-68
2024/04/01 00:10:00;;;;;;;2.72;0.08;;;14.50;91.80;;;;;;5004240;28;20120;-66
2024/04/01 00:12:32;;;;;;;0.30;0.00;;;14.30;92.20;;;;;;5000082;28;20038;-67
2024/04/01 00:14:57;;;;;;;0.00;0.00;;;14.10;92.40;;;;;;4995206;28;20034;-68
2024/04/01 00:17:23;;;;;;;2.88;0.10;;;13.90;92.60;;;;;;4999499;28;20471;-68
2024/04/01 00:19:48;;;;;;;0.10;0.10;;;13.80;93.00;;;;;;4994659;28;20128;-68
2024/04/01 00:22:14;;;;;;;0.90;0.10;;;13.80;93.30;;;;;;5018243;28;20021;-68
2024/04/01 00:24:40;;;;;;;3.85;0.15;;;13.70;93.60;;;;;;4993088;28;20042;-67
2024/04/01 00:27:05;;;;;;;0.20;0.00;;;13.70;93.80;;;;;;5005081;28;20388;-67
2024/04/01 00:29:31;;;;;;;2.72;0.10;;;13.70;94.10;;;;;;5021444;28;20042;-68
2024/04/01 00:31:56;;;;;;;1.75;0.00;;;13.80;94.30;;;;;;4991558;28;20042;-69
2024/04/01 00:34:22;;;;;;;0.20;0.00;;;13.80;94.30;;;;;;5004876;28;20029;-68
2024/04/01 00:36:47;;;;;;;0.70;0.10;;;13.80;94.40;;;;;;4983998;28;20035;-69
2024/04/01 00:39:13;;;;;;;0.52;0.10;;;13.80;94.40;;;;;;4962449;28;20038;-67
2024/04/01 00:41:38;;;;;;;1.65;0.00;;;13.80;94.60;;;;;;4970478;28;20051;-69
2024/04/01 00:44:04;;;;;;;0.43;0.00;;;13.90;94.70;;;;;;4974461;28;20027;-67
2024/04/01 00:46:29;;;;;;;0.52;0.10;;;13.90;94.70;;;;;;4977491;28;20037;-68
2024/04/01 00:48:55;;;;;;;0.17;0.00;;;13.90;94.80;;;;;;4954081;28;20339;-68
2024/04/01 00:51:27;;;;;;;0.20;0.10;;;13.90;94.70;;;;;;4974148;28;20104;-68
2024/04/01 00:53:54;;;;;;;1.00;0.10;;;13.90;94.90;;;;;;4963252;28;20026;-68
2024/04/01 00:56:22;;;;;;;0.43;0.03;;;14.00;94.90;;;;;;4992161;28;20034;-67
2024/04/01 00:58:52;;;;;;;3.83;0.22;;;14.00;94.90;;;;;;4976741;28;20034;-67
2024/04/01 01:01:17;;;;;;;0.82;0.10;;;14.00;95.00;;;;;;4983893;28;20500;-68
2024/04/01 01:03:44;;;;;;;1.80;0.03;;;14.00;95.00;;;;;;4992398;28;20068;-67
2024/04/01 01:06:14;;;;;;;1.67;0.10;;;14.10;95.10;;;;;;5010088;28;20105;-68
2024/04/01 01:08:41;;;;;;;0.43;0.10;;;14.10;95.20;;;;;;4989172;28;20035;-68
2024/04/01 01:11:07;;;;;;;0.40;0.00;;;14.10;95.30;;;;;;4999906;28;20038;-68
2024/04/01 01:13:33;;;;;;;1.73;0.10;;;14.10;95.30;;;;;;4989320;28;20061;-68
2024/04/01 01:15:59;;;;;;;1.17;0.00;;;14.10;95.30;;;;;;4971170;28;20023;-68
2024/04/01 01:18:24;;;;;;;0.32;0.00;;;14.10;95.30;;;;;;4973440;28;20046;-67
2024/04/01 01:20:50;;;;;;;0.73;0.10;;;14.20;95.30;;;;;;4973551;28;20039;-67
2024/04/01 01:23:16;;;;;;;1.40;0.13;;;14.20;95.30;;;;;;4927574;29;20039;-67
2024/04/01 01:25:41;;;;;;;0.52;0.10;;;14.20;95.40;;;;;;4948017;28;20036;-67
2024/04/01 01:28:07;;;;;;;0.40;0.10;;;14.30;95.40;;;;;;4975946;28;20039;-67
2024/04/01 01:30:35;;;;;;;0.52;0.10;;;14.30;95.30;;;;;;5001436;28;20038;-67
2024/04/01 01:33:03;;;;;;;0.25;0.10;;;14.30;95.40;;;;;;4980364;28;20032;-68
2024/04/01 01:35:29;;;;;;;1.20;0.10;;;14.30;95.30;;;;;;4941605;28;20130;-67
2024/04/01 01:37:55;;;;;;;0.38;0.00;;;14.30;95.30;;;;;;4911342;29;20658;-67
2024/04/01 01:40:21;;;;;;;0.98;0.00;;;14.30;95.30;;;;;;4936204;28;20578;-67
2024/04/01 01:42:47;;;;;;;0.22;0.00;;;14.30;95.40;;;;;;4938761;28;20047;-67
2024/04/01 01:45:13;;;;;;;0.13;0.00;;;14.30;95.50;;;;;;4964774;28;20083;-67
2024/04/01 01:47:45;;;;;;;0.00;0.00;;;14.30;95.50;;;;;;4936119;28;20039;-67
2024/04/01 01:50:11;;;;;;;1.80;0.08;;;14.20;95.50;;;;;;4950865;28;20455;-68
2024/04/01 01:52:36;;;;;;;0.85;0.00;;;14.10;95.70;;;;;;4938476;28;20043;-68
2024/04/01 01:55:03;;;;;;;1.02;0.10;;;14.10;95.80;;;;;;4944002;28;20035;-68
2024/04/01 01:57:29;;;;;;;0.00;0.00;;;14.20;95.70;;;;;;4947765;28;20647;-67
2024/04/01 02:00:05;;;;;;;2.08;0.13;;;14.10;95.80;;;;;;4970320;28;20186;-68
2024/04/01 02:02:32;;;;;;;0.55;0.00;;;14.00;95.80;;;;;;4941449;28;20509;-68
2024/04/01 02:04:58;;;;;;;1.80;0.05;;;13.90;95.90;;;;;;4958009;28;20039;-68
2024/04/01 02:07:23;;;;;;;0.22;0.00;;;13.90;96.20;;;;;;4971155;28;20030;-68
2024/04/01 02:09:49;;;;;;;1.88;0.10;;;13.80;96.20;;;;;;4979616;28;20035;-69
2024/04/01 02:12:14;;;;;;;0.50;0.10;;;13.80;96.40;;;;;;4984598;28;20065;-69
2024/04/01 02:14:40;;;;;;;1.67;0.10;;;13.80;96.40;;;;;;4985541;28;20031;-68
2024/04/01 02:17:07;;;;;;;2.33;0.10;;;13.90;96.60;;;;;;4997070;28;20053;-68
2024/04/01 02:19:34;;;;;;;0.30;0.10;;;13.90;96.70;;;;;;4992630;28;20042;-69
2024/04/01 02:22:00;;;;;;;3.15;0.20;;;14.00;96.70;;;;;;4986605;28;20246;-69
2024/04/01 02:24:28;;;;;;;0.40;0.10;;;14.00;96.70;;;;;;4971994;28;20045;-69
2024/04/01 02:26:54;;;;;;;0.65;0.00;;;14.00;96.70;;;;;;4979741;28;20125;-68
2024/04/01 02:29:20;;;;;;;0.52;0.00;;;14.10;96.50;;;;;;4941818;28;20142;-68
2024/04/01 02:31:47;;;;;;;0.08;0.00;;;14.00;96.60;;;;;;4954590;28;20039;-69
2024/04/01 02:34:12;;;;;;;0.65;0.05;;;14.00;96.90;;;;;;4935051;28;20479;-68
2024/04/01 02:36:38;;;;;;;1.27;0.10;;;14.00;96.90;;;;;;4943258;28;20057;-69
2024/04/01 02:39:04;;;;;;;0.00;0.00;;;14.10;96.90;;;;;;4976087;28;20057;-69
2024/04/01 02:41:33;;;;;;;0.90;0.20;;;14.10;96.90;;;;;;4986047;28;20418;-69
2024/04/01 02:43:59;;;;;;;0.10;0.00;;;14.00;96.90;;;;;;4962554;28;20066;-69
2024/04/01 02:46:31;;;;;;;0.65;0.10;;;14.00;96.90;;;;;;4960406;28;20118;-68
2024/04/01 02:48:56;;;;;;;2.13;0.00;;;14.00;96.90;;;;;;4955954;28;20362;-68
2024/04/01 02:51:23;;;;;;;0.98;0.10;;;14.00;96.90;;;;;;4961537;28;20043;-68
2024/04/01 02:53:48;;;;;;;0.30;0.00;;;14.00;97.00;;;;;;4957228;28;20033;-68
2024/04/01 02:56:14;;;;;;;0.00;0.00;;;14.00;97.10;;;;;;4913371;29;20040;-68
2024/04/01 02:58:43;;;;;;;1.20;0.03;;;14.00;97.10;;;;;;4910907;29;20078;-68
2024/04/01 03:01:08;;;;;;;1.92;0.10;;;14.00;97.00;;;;;;4930477;28;20038;-68
2024/04/01 03:03:34;;;;;;;0.28;0.00;;;13.90;97.00;;;;;;4947724;28;20394;-67
2024/04/01 03:06:00;;;;;;;0.10;0.00;;;13.90;97.10;;;;;;4939157;28;20435;-68
2024/04/01 03:08:25;;;;;;;0.20;0.10;;;14.00;97.10;;;;;;4937995;28;20109;-66
2024/04/01 03:10:57;;;;;;;0.65;0.00;;;13.90;97.10;;;;;;4967010;28;20049;-68
2024/04/01 03:13:23;;;;;;;0.00;0.00;;;13.90;97.20;;;;;;4996885;28;20128;-67
2024/04/01 03:15:49;;;;;;;0.30;0.00;;;13.90;97.10;;;;;;4974456;28;20151;-68
2024/04/01 03:18:14;;;;;;;0.00;0.00;;;14.00;97.20;;;;;;4950503;28;20074;-68
2024/04/01 03:20:40;;;;;;;0.00;0.00;;;14.00;97.20;;;;;;4935045;28;20043;-69
2024/04/01 03:23:06;;;;;;;0.52;0.00;;;14.00;97.10;;;;;;4883858;29;20044;-69
2024/04/01 03:25:32;;;;;;;0.10;0.00;;;14.00;97.10;;;;;;4915080;28;20032;-68
2024/04/01 03:27:58;;;;;;;0.13;0.00;;;14.00;97.00;;;;;;4922030;28;20066;-68
2024/04/01 03:30:24;;;;;;;0.38;0.03;;;13.90;97.00;;;;;;4923373;29;20076;-68
2024/04/01 03:32:49;;;;;;;1.30;0.10;;;13.90;97.10;;;;;;4950491;28;20046;-68
2024/04/01 03:35:15;;;;;;;1.55;0.00;;;13.90;97.30;;;;;;4974936;28;20820;-69
2024/04/01 03:37:41;;;;;;;0.20;0.00;;;13.90;97.20;;;;;;4952428;28;20491;-68
2024/04/01 03:40:09;;;;;;;1.27;0.10;;;13.80;97.40;;;;;;4942249;28;20042;-68
2024/04/01 03:42:35;;;;;;;0.38;0.00;;;13.90;97.50;;;;;;4976797;28;20035;-68
2024/04/01 03:45:01;;;;;;;0.20;0.10;;;13.90;97.50;;;;;;4977844;28;20496;-69
2024/04/01 03:47:33;;;;;;;0.38;0.00;;;13.90;97.70;;;;;;4966698;28;20034;-66
2024/04/01 03:49:59;;;;;;;0.10;0.00;;;14.00;97.70;;;;;;4924481;28;20041;-68
2024/04/01 03:52:25;;;;;;;0.28;0.00;;;14.00;97.50;;;;;;4916258;28;20578;-68
2024/04/01 03:54:50;;;;;;;1.00;0.10;;;13.90;97.50;;;;;;4907201;28;20031;-68
2024/04/01 03:57:16;;;;;;;0.08;0.00;;;13.90;97.50;;;;;;4947531;28;20031;-68
2024/04/01 03:59:42;;;;;;;1.83;0.08;;;13.90;97.50;;;;;;4969545;28;20031;-67
2024/04/01 04:02:08;;;;;;;0.20;0.00;;;13.90;97.40;;;;;;4981071;28;20045;-68
2024/04/01 04:04:34;;;;;;;1.65;0.20;;;13.80;97.40;;;;;;4985020;28;20038;-67
2024/04/01 04:07:00;;;;;;;0.00;0.00;;;13.80;97.30;;;;;;4987588;28;20410;-68
2024/04/01 04:09:26;;;;;;;0.65;0.00;;;13.70;97.40;;;;;;4987654;28;20040;-68
2024/04/01 04:11:52;;;;;;;1.30;0.00;;;13.70;97.60;;;;;;4983374;28;20556;-69
2024/04/01 04:14:26;;;;;;;0.15;0.00;;;13.70;97.60;;;;;;4991375;28;20291;-68
2024/04/01 04:16:52;;;;;;;0.03;0.00;;;13.70;97.50;;;;;;4945692;28;20047;-69
2024/04/01 04:19:20;;;;;;;1.65;0.00;;;13.60;97.60;;;;;;4971921;28;20060;-68
2024/04/01 04:21:46;;;;;;;2.10;0.05;;;13.60;97.70;;;;;;4986864;28;20046;-68
2024/04/01 04:24:18;;;;;;;0.00;0.00;;;13.60;97.80;;;;;;4956378;28;20036;-68
2024/04/01 04:26:44;;;;;;;0.95;0.08;;;13.60;98.00;;;;;;4980018;28;20045;-68
2024/04/01 04:29:09;;;;;;;0.52;0.00;;;13.60;97.70;;;;;;4964652;28;20054;-68
2024/04/01 04:31:35;;;;;;;0.20;0.05;;;13.60;97.60;;;;;;4948497;28;20455;-69
2024/04/01 04:34:01;;;;;;;0.20;0.00;;;13.50;97.90;;;;;;4947589;28;20038;-69
2024/04/01 04:36:27;;;;;;;0.00;0.00;;;13.50;98.10;;;;;;4929852;28;20047;-68
2024/04/01 04:38:53;;;;;;;0.00;0.00;;;13.60;98.30;;;;;;4914000;28;20139;-68
2024/04/01 04:41:20;;;;;;;0.20;0.00;;;13.60;98.20;;;;;;4925879;28;21824;-68
2024/04/01 04:43:46;;;;;;;0.40;0.10;;;13.70;98.20;;;;;;4932128;28;20039;-68
2024/04/01 04:46:12;;;;;;;0.38;0.00;;;13.60;98.10;;;;;;4950150;28;20035;-69
2024/04/01 04:48:44;;;;;;;0.95;0.10;;;13.60;98.10;;;;;;4941834;28;20040;-68
2024/04/01 04:51:11;;;;;;;1.45;0.10;;;13.50;98.30;;;;;;4923159;29;20083;-68
2024/04/01 04:53:38;;;;;;;0.00;0.00;;;13.60;98.30;;;;;;4911006;29;20120;-69
2024/04/01 04:56:04;;;;;;;0.30;0.10;;;13.50;98.20;;;;;;4906382;29;20035;-68
2024/04/01 04:58:31;;;;;;;0.17;0.08;;;13.50;98.10;;;;;;4908689;29;20050;-67
2024/04/01 05:00:56;;;;;;;0.52;0.10;;;13.50;98.30;;;;;;4924507;28;20462;-67
2024/04/01 05:03:22;;;;;;;0.50;0.00;;;13.50;98.40;;;;;;4934564;28;20172;-68
2024/04/01 05:05:47;;;;;;;0.45;0.10;;;13.50;98.10;;;;;;4961260;28;20113;-68
2024/04/01 05:08:13;;;;;;;0.10;0.00;;;13.50;98.10;;;;;;4932655;29;20470;-68
2024/04/01 05:10:39;;;;;;;0.20;0.10;;;13.50;98.40;;;;;;4924880;29;20376;-68
2024/04/01 05:13:05;;;;;;;0.85;0.10;;;13.50;97.70;;;;;;4923557;28;20113;-68
2024/04/01 05:15:30;;;;;;;0.10;0.00;;;13.30;98.00;;;;;;4923304;28;20033;-69
2024/04/01 05:17:56;;;;;;;0.75;0.00;;;13.20;98.40;;;;;;4946528;28;20083;-68
2024/04/01 05:20:22;;;;;;;1.90;0.13;;;13.10;98.50;;;;;;4984997;28;20152;-69
2024/04/01 05:22:54;;;;;;;1.23;0.00;;;12.90;98.90;;;;;;4970180;28;20027;-68
2024/04/01 05:25:20;;;;;;;3.20;0.20;;;12.70;99.50;;;;;;4942659;28;20035;-69
2024/04/01 05:27:45;;;;;;;0.40;0.00;;;12.60;99.80;;;;;;4994770;28;20027;-69
2024/04/01 05:30:11;;;;;;;0.30;0.10;;;12.60;99.90;;;;;;4977344;28;20038;-68
2024/04/01 05:32:38;;;;;;;0.52;0.10;;;12.70;99.90;;;;;;4994649;28;20030;-66
2024/04/01 05:35:05;;;;;;;1.25;0.10;;;12.70;99.90;;;;;;4977887;28;20034;-69
2024/04/01 05:37:31;;;;;;;1.95;0.20;;;12.80;99.90;;;;;;5004757;28;20536;-68
2024/04/01 05:39:57;;;;;;;1.23;0.20;;;12.80;99.90;;;;;;5002324;28;20140;-68
2024/04/01 05:42:23;;;;;;;0.40;0.10;;;12.90;99.90;;;;;;4978982;28;20173;-68
2024/04/01 05:44:48;;;;;;;1.95;0.10;;;12.90;99.90;;;;;;4947827;28;20474;-68
2024/04/01 05:47:15;;;;;;;0.98;0.10;;;13.00;99.90;;;;;;4963996;28;20047;-68
2024/04/01 05:49:41;;;;;;;0.82;0.03;;;13.00;99.90;;;;;;4961663;28;20035;-67
2024/04/01 05:52:07;;;;;;;1.50;0.17;;;13.10;99.90;;;;;;4959155;28;20362;-68
2024/04/01 05:54:33;;;;;;;3.25;0.20;;;13.10;99.90;;;;;;4949162;28;20094;-68
2024/04/01 05:56:59;;;;;;;0.10;0.00;;;13.20;99.90;;;;;;4985396;28;20022;-69
2024/04/01 05:59:25;;;;;;;0.30;0.10;;;13.20;99.90;;;;;;4977315;28;20035;-66
2024/04/01 06:01:55;;;;;;;0.17;0.00;;;13.30;99.80;;;;;;4979672;28;20265;-67
2024/04/01 06:04:21;;;;;;;0.47;0.10;;;13.30;99.70;;;;;;5005836;28;20033;-69
2024/04/01 06:06:47;;;;;;;0.20;0.00;;;13.30;99.60;;;;;;4946659;28;20391;-69
2024/04/01 06:09:16;;;;;;;0.10;0.00;;;13.30;99.50;;;;;;4963337;28;20038;-68
2024/04/01 06:11:42;;;;;;;0.52;0.08;;;13.30;99.50;;;;;;4978510;28;20030;-68
2024/04/01 06:14:09;;;;;;;0.40;0.00;;;13.40;99.50;;;;;;4985113;28;20045;-68
2024/04/01 06:16:41;;;;;;;0.32;0.00;;;13.30;99.40;;;;;;4995142;28;20044;-68
2024/04/01 06:19:06;;;;;;;2.97;0.17;;;13.30;99.40;;;;;;4967534;28;20066;-68
2024/04/01 06:21:32;;;;;;;1.80;0.10;;;13.30;99.50;;;;;;4979748;28;20470;-69
2024/04/01 06:23:59;;;;;;;0.68;0.10;;;13.30;99.40;;;;;;4962948;28;20545;-69
2024/04/01 06:26:26;;;;;;;0.20;0.00;;;13.40;99.50;;;;;;4972823;28;20058;-69
2024/04/01 06:28:51;;;;;;;0.65;0.10;;;13.30;99.20;;;;;;5004393;28;20038;-70
2024/04/01 06:31:17;;;;;;;1.48;0.10;;;13.30;99.00;;;;;;5004057;28;20080;-69
2024/04/01 06:33:43;;;;;;;0.30;0.13;;;13.20;99.00;;;;;;4977370;28;20442;-68
2024/04/01 06:36:12;;;;;;;2.58;0.20;;;13.20;99.00;;;;;;4994756;28;20393;-69
2024/04/01 06:38:39;;;;;;;0.32;0.10;;;13.00;99.40;;;;;;4995700;28;20026;-69
2024/04/01 06:41:04;;;;;;;0.47;0.10;;;12.90;99.70;;;;;;4998384;28;20039;-69
2024/04/01 06:43:30;;;;;;;1.00;0.13;;;12.70;99.90;;;;;;5013479;28;20037;-69
2024/04/01 06:46:00;;;;;;;0.63;0.15;;;12.50;99.90;;;;;;4985308;28;20050;-68
2024/04/01 06:48:26;;;;;;;0.52;0.10;;;12.50;99.90;;;;;;4984444;28;20042;-68
2024/04/01 06:50:52;;;;;;;0.65;0.10;;;12.40;99.90;;;;;;5002373;28;20030;-68
2024/04/01 06:53:24;;;;;;;0.10;0.05;;;12.40;99.90;;;;;;4994152;28;20448;-68
2024/04/01 06:55:50;;;;;;;0.35;0.08;;;12.40;99.90;;;;;;4998704;28;20465;-69
2024/04/01 06:58:16;;;;;;;0.52;0.10;;;12.40;99.90;;;;;;4999685;28;20046;-68
2024/04/01 07:00:42;;;;;;;0.68;0.10;;;12.30;99.90;;;;;;4980631;28;20035;-68
2024/04/01 07:03:07;;;;;;;0.10;0.00;;;12.30;99.90;;;;;;4983823;28;20408;-67
2024/04/01 07:05:34;;;;;;;0.15;0.03;;;12.20;99.90;;;;;;5010778;28;20114;-68
2024/04/01 07:07:59;;;;;;;0.10;0.00;;;12.10;99.90;;;;;;5024156;28;20052;-68
2024/04/01 07:10:26;;;;;;;0.00;0.00;;;12.00;99.90;;;;;;5024252;28;20465;-68
2024/04/01 07:12:52;;;;;;;1.85;0.10;;;11.90;99.90;;;;;;5022971;28;20036;-69
2024/04/01 07:15:17;;;;;;;1.38;0.10;;;12.00;99.90;;;;;;5019015;28;20037;-69
2024/04/01 07:17:43;;;;;;;0.68;0.10;;;12.10;99.90;;;;;;5004467;28;20030;-67
2024/04/01 07:20:12;;;;;;;0.13;0.00;;;12.10;99.90;;;;;;4992569;28;20077;-67
2024/04/01 07:22:38;;;;;;;0.57;0.00;;;12.00;99.90;;;;;;5025769;28;20033;-68
2024/04/01 07:25:04;;;;;;;3.50;0.10;;;12.10;99.90;;;;;;5022540;28;20160;-68
2024/04/01 07:27:36;;;;;;;1.60;0.15;;;12.20;99.90;;;;;;5026351;28;20124;-68
2024/04/01 07:30:06;;;;;;;0.55;0.00;;;12.30;99.90;;;;;;5019015;28;20496;-68
2024/04/01 07:32:33;;;;;;;0.77;0.10;;;12.30;99.90;;;;;;5015263;28;20029;-68
2024/04/01 07:34:59;;;;;;;0.00;0.00;;;12.30;99.90;;;;;;5009632;28;20041;-69
2024/04/01 07:37:25;;;;;;;0.10;0.00;;;12.20;99.90;;;;;;4980858;28;20036;-68
2024/04/01 07:39:58;;;;;;;0.65;0.05;;;12.10;99.90;;;;;;4945068;28;20055;-69
2024/04/01 07:42:23;;;;;;;0.50;0.10;;;12.10;99.90;;;;;;4945650;28;20302;-68
2024/04/01 07:44:50;;;;;;;0.08;0.00;;;12.20;99.90;;;;;;4938145;28;20050;-68
2024/04/01 07:47:15;;;;;;;0.43;0.00;;;12.30;99.90;;;;;;4888783;29;20040;-66
2024/04/01 07:49:41;;;;;;;0.85;0.10;;;12.40;99.90;;;;;;4898151;29;20338;-68
2024/04/01 07:52:09;;;;;;;1.20;0.00;;;12.50;99.90;;;;;;4938329;28;20119;-69
2024/04/01 07:54:36;;;;;;;1.23;0.10;;;12.60;99.90;;;;;;4880905;29;20044;-68
2024/04/01 07:57:02;;;;;;;0.38;0.08;;;12.60;99.90;;;;;;4887663;29;20041;-68
2024/04/01 07:59:29;;;;;;;0.82;0.05;;;12.60;99.90;;;;;;4871308;29;20052;-67
2024/04/01 08:01:55;;;;;;;0.00;0.00;;;12.70;99.90;;;;;;4869701;29;20037;-67
2024/04/01 08:04:28;;;;;;;0.00;0.00;;;12.70;99.90;;;;;;4893671;29;20045;-67
2024/04/01 08:06:54;;;;;;;0.00;0.00;;;12.70;99.90;;;;;;4916966;29;20733;-67
2024/04/01 08:09:21;;;;;;;0.65;0.00;;;12.60;99.90;;;;;;4888391;29;20789;-67
2024/04/01 08:11:47;;;;;;;0.63;0.00;;;12.70;99.90;;;;;;4924742;28;20050;-66
2024/04/01 08:14:13;;;;;;;0.40;0.00;;;12.70;99.90;;;;;;4906680;28;20040;-69
2024/04/01 08:16:39;;;;;;;0.60;0.08;;;12.50;99.90;;;;;;4920215;29;20060;-67
2024/04/01 08:19:05;;;;;;;0.28;0.00;;;12.50;99.90;;;;;;4924394;29;20058;-67
2024/04/01 08:21:30;;;;;;;0.25;0.00;;;12.60;99.90;;;;;;4925698;29;20040;-66
2024/04/01 08:23:56;;;;;;;0.00;0.00;;;12.60;99.90;;;;;;4922673;29;20380;-67
2024/04/01 08:26:22;;;;;;;0.20;0.00;;;12.50;99.90;;;;;;4889703;29;20044;-67
2024/04/01 08:28:51;;;;;;;0.10;0.00;;;12.40;99.90;;;;;;4908092;29;20064;-66
2024/04/01 08:31:16;;;;;;;0.73;0.10;;;12.30;99.90;;;;;;4896849;29;20076;-67
2024/04/01 08:33:42;;;;;;;0.00;0.00;;;12.20;99.90;;;;;;4918762;29;20064;-67
2024/04/01 08:36:17;;;;;;;0.00;0.00;;;12.10;99.90;;;;;;4873853;29;20060;-67
2024/04/01 08:38:43;;;;;;;0.68;0.03;;;12.10;99.90;;;;;;4854575;29;20101;-67
2024/04/01 08:41:24;;;;;;;0.10;0.00;;;12.10;99.90;;;;;;4809409;29;20066;-66
2024/04/01 08:44:13;;;;;;;0.03;0.00;;;12.10;99.90;;;;;;4793135;29;20050;-68
2024/04/01 08:46:44;;;;;;;1.65;0.20;;;12.00;99.90;;;;;;4769078;29;20121;-67
2024/04/01 08:49:14;;;;;;;3.10;0.10;;;12.10;99.90;;;;;;4761296;29;20052;-67
2024/04/01 08:51:41;;;;;;;0.10;0.00;;;12.10;99.90;;;;;;4752022;29;20430;-68
2024/04/01 08:54:12;;;;;;;;;;;12.10;99.90;;;;;;4755642;29;20331;-67
2024/04/01 08:56:44;;;;;;;1.25;0.00;;;12.10;99.50;;;;;;4765925;29;19918;-68
2024/04/01 08:59:10;;;;;;;0.30;0.00;;;12.10;99.50;;;;;;4744303;30;20074;-67
2024/04/01 09:01:36;;;;;;;0.15;0.00;;;12.00;99.30;;;;;;4761300;29;20047;-68
2024/04/01 09:04:03;;;;;;;0.10;0.00;;;12.00;99.70;;;;;;4760135;29;20055;-67
2024/04/01 09:06:29;;;;;;;0.43;0.00;;;11.90;99.30;;;;;;4753500;29;20044;-67
2024/04/01 09:08:55;;;;;;;0.22;0.00;;;11.80;99.50;;;;;;4748658;29;20071;-67
2024/04/01 09:11:25;;;;;;;0.30;0.00;;;11.90;99.80;;;;;;4774504;29;20043;-67
2024/04/01 09:13:51;;;;;;;0.10;0.00;;;11.90;99.50;;;;;;4775835;29;20672;-68
2024/04/01 09:16:25;;;;;;;0.00;0.00;;;11.90;99.50;;;;;;4762434;29;20053;-68
2024/04/01 09:18:50;;;;;;;0.45;0.00;;;12.00;99.40;;;;;;4786943;29;20046;-67
2024/04/01 09:21:25;;;;;;;0.22;0.00;;;12.00;99.70;;;;;;4810641;29;20069;-67
2024/04/01 09:23:53;;;;;;;0.50;0.03;;;12.10;99.40;;;;;;4842781;29;20037;-67
2024/04/01 09:26:30;;;;;;;0.10;0.00;;;12.00;99.30;;;;;;4812480;29;20476;-67
2024/04/01 09:28:56;;;;;;;0.00;0.00;;;12.00;99.70;;;;;;4827160;29;20065;-67
2024/04/01 09:31:22;;;;;;;0.20;0.00;;;12.00;99.90;;;;;;4843326;29;20054;-67
2024/04/01 09:33:55;;;;;;;0.28;0.00;;;12.00;99.80;;;;;;4833765;29;20042;-67
2024/04/01 09:36:22;;;;;;;0.20;0.00;;;12.00;99.80;;;;;;4815579;29;20042;-67
2024/04/01 09:38:51;;;;;;;0.10;0.00;;;12.10;99.90;;;;;;4810033;29;20046;-67
2024/04/01 09:41:17;;;;;;;0.10;0.00;;;12.10;99.80;;;;;;4811971;29;20351;-67
2024/04/01 09:43:43;;;;;;;0.20;0.00;;;12.20;99.30;;;;;;4813579;29;20041;-66
2024/04/01 09:46:08;;;;;;;0.20;0.00;;;12.30;99.10;;;;;;4831439;29;20052;-66
2024/04/01 09:48:36;;;;;;;0.43;0.05;;;12.20;99.00;;;;;;4846034;29;20029;-67
2024/04/01 09:51:02;;;;;;;;;;;12.20;99.10;;;;;;4877583;29;20081;-67
2024/04/01 09:53:28;;;;;;;;;;;12.20;99.20;;;;;;4852211;29;20231;-67
2024/04/01 09:55:59;;;;;;;;;;;12.20;99.10;;;;;;4841806;29;19919;-67
2024/04/01 09:59:02;;;;;;;0.00;0.00;;;12.20;99.00;;;;;;4858508;29;19919;-66
2024/04/01 10:01:46;;;;;;;0.10;0.00;;;12.10;99.10;;;;;;4829742;29;20076;-66
2024/04/01 10:04:30;;;;;;;0.13;0.00;;;12.10;99.30;;;;;;4855536;29;20287;-67
2024/04/01 10:07:33;;;;;;;0.17;0.00;;;11.90;99.50;;;;;;4873485;29;20037;-68
2024/04/01 10:10:05;;;;;;;0.20;0.00;;;11.90;99.60;;;;;;4847425;29;20468;-67
2024/04/01 10:12:59;;;;;;;0.55;0.10;;;11.90;99.90;;;;;;4849109;29;20553;-66
2024/04/01 10:15:27;;;;;;;0.20;0.00;;;12.00;99.90;;;;;;4845383;29;20052;-67
2024/04/01 10:18:28;;;;;;;0.00;0.00;;;12.10;99.70;;;;;;4854729;29;20048;-67
2024/04/01 10:21:08;;;;;;;0.00;0.00;;;12.10;99.50;;;;;;4818557;29;20079;-66
2024/04/01 10:23:46;;;;;;;0.00;0.00;;;12.20;99.40;;;;;;4862192;29;20053;-67
2024/04/01 10:26:26;;;;;;;0.00;0.00;;;12.20;99.30;;;;;;4885581;29;20032;-67
2024/04/01 10:29:29;;;;;;;0.15;0.00;;;12.10;99.20;;;;;;4892682;29;20375;-67
2024/04/01 10:32:14;;;;;;;0.40;0.00;;;12.10;99.30;;;;;;4902475;29;20523;-67
2024/04/01 10:35:16;;;;;;;0.00;0.00;;;12.10;99.30;;;;;;4892922;29;20386;-68
2024/04/01 10:38:05;;;;;;;0.00;0.00;;;12.10;99.10;;;;;;4874365;29;20362;-68
2024/04/01 10:40:30;;;;;;;0.00;0.00;;;12.10;99.20;;;;;;4867172;29;20048;-67
2024/04/01 10:43:23;;;;;;;0.10;0.00;;;12.10;99.00;;;;;;4917303;28;20035;-68
2024/04/01 10:46:12;;;;;;;0.38;0.10;;;12.10;98.60;;;;;;4906901;29;20040;-67
2024/04/01 10:49:17;;;;;;;0.00;0.00;;;12.00;98.50;;;;;;4885560;29;20037;-67
2024/04/01 10:52:10;;;;;;;0.00;0.00;;;12.00;99.00;;;;;;4876513;29;20060;-67
2024/04/01 10:55:00;;;;;;;0.05;0.00;;;12.00;99.20;;;;;;4847620;29;20379;-68
2024/04/01 10:58:08;;;;;;;0.00;0.00;;;12.10;99.10;;;;;;4850270;29;20050;-67
2024/04/01 11:00:52;;;;;;;0.00;0.00;;;12.10;98.70;;;;;;4823541;29;20494;-66
2024/04/01 11:03:34;;;;;;;0.00;0.00;;;12.20;98.90;;;;;;4904980;28;20082;-66
2024/04/01 11:06:12;;;;;;;0.00;0.00;;;12.20;98.80;;;;;;4920805;28;20043;-66
2024/04/01 11:08:55;;;;;;;0.45;0.00;;;12.30;98.80;;;;;;4918140;29;20130;-67
2024/04/01 11:11:42;;;;;;;0.28;0.00;;;12.20;98.50;;;;;;4948345;28;20039;-67
2024/04/01 11:14:10;;;;;;;0.38;0.10;;;12.20;98.90;;;;;;4949648;28;20036;-66
2024/04/01 11:16:41;;;;;;;0.15;0.00;;;12.20;99.20;;;;;;4934643;28;20592;-66
2024/04/01 11:19:51;;;;;;;0.93;0.00;;;12.30;99.10;;;;;;4965755;28;20414;-66
2024/04/01 11:22:23;;;;;;;0.30;0.00;;;12.40;99.30;;;;;;4986100;28;20449;-66
2024/04/01 11:25:00;;;;;;;1.95;0.08;;;12.50;99.20;;;;;;5002334;28;20052;-68
2024/04/01 11:27:55;;;;;;;0.73;0.03;;;12.50;99.50;;;;;;5001706;28;20038;-67
2024/04/01 11:30:34;;;;;;;0.20;0.10;;;12.50;99.70;;;;;;4998021;28;20038;-67
2024/04/01 11:33:24;;;;;;;0.00;0.00;;;12.50;99.90;;;;;;5015222;28;20384;-67
2024/04/01 11:35:52;;;;;;;1.50;0.10;;;12.50;99.70;;;;;;5029330;28;20336;-67
2024/04/01 11:38:45;;;;;;;0.30;0.10;;;12.30;99.40;;;;;;5022100;28;20112;-67
2024/04/01 11:41:14;;;;;;;2.20;0.13;;;12.30;99.80;;;;;;5006495;28;20401;-66
2024/04/01 11:43:42;;;;;;;0.30;0.05;;;12.40;99.90;;;;;;5025264;28;20121;-67
2024/04/01 11:46:11;;;;;;;0.10;0.00;;;12.50;99.90;;;;;;5025996;28;20033;-67
2024/04/01 11:48:37;;;;;;;0.32;0.00;;;12.60;99.70;;;;;;5019035;28;20033;-67
2024/04/01 11:51:03;;;;;;;0.10;0.03;;;12.60;99.80;;;;;;5025293;28;20484;-67
2024/04/01 11:53:42;;;;;;;0.17;0.00;;;12.70;99.50;;;;;;5023603;28;20052;-67
2024/04/01 11:56:07;;;;;;;0.00;0.00;;;12.60;99.20;;;;;;5020445;28;20396;-66
2024/04/01 11:58:48;;;;;;;1.20;0.00;;;12.60;99.20;;;;;;5020459;28;20048;-66
2024/04/01 12:01:13;;;;;;;0.03;0.00;;;12.70;99.30;;;;;;5013521;28;20072;-67
2024/04/01 12:03:40;;;;;;;0.13;0.00;;;12.70;99.20;;;;;;5007315;28;20038;-69
2024/04/01 12:06:07;;;;;;;0.00;0.00;;;12.70;98.90;;;;;;4988880;28;20501;-68
2024/04/01 12:08:35;;;;;;;3.05;0.20;;;12.70;98.50;;;;;;5020631;28;20043;-68
2024/04/01 12:11:05;;;;;;;0.35;0.00;;;12.80;98.30;;;;;;5004517;28;21062;-69
2024/04/01 12:13:30;;;;;;;0.10;0.00;;;12.70;97.80;;;;;;5018321;28;20068;-68
2024/04/01 12:16:00;;;;;;;0.20;0.00;;;12.60;97.90;;;;;;5022379;28;20523;-68
2024/04/01 12:18:25;;;;;;;0.40;0.00;;;12.60;98.10;;;;;;5018792;28;20364;-68
2024/04/01 12:20:53;;;;;;;0.45;0.00;;;12.60;98.00;;;;;;5001760;28;20536;-68
2024/04/01 12:23:25;;;;;;;0.47;0.00;;;12.60;98.20;;;;;;5015796;28;20033;-69
2024/04/01 12:25:51;;;;;;;0.00;0.00;;;12.60;98.40;;;;;;5021737;28;20033;-68
2024/04/01 12:28:18;;;;;;;0.00;0.00;;;12.60;98.20;;;;;;5018651;28;20483;-68
2024/04/01 12:30:51;;;;;;;0.00;0.00;;;12.50;97.80;;;;;;5018881;28;20037;-68
2024/04/01 12:33:19;;;;;;;0.05;0.03;;;12.30;97.70;;;;;;5021781;28;20145;-67
2024/04/01 12:35:45;;;;;;;0.20;0.00;;;12.20;98.00;;;;;;5019053;28;20522;-68
2024/04/01 12:38:13;;;;;;;0.30;0.00;;;12.20;98.00;;;;;;5019361;28;20155;-68
2024/04/01 12:40:43;;;;;;;0.30;0.00;;;12.20;98.10;;;;;;5021373;28;20040;-68
2024/04/01 12:43:14;;;;;;;0.10;0.00;;;12.10;97.90;;;;;;5018916;28;20711;-67
2024/04/01 12:45:44;;;;;;;1.42;0.03;;;12.20;98.30;;;;;;5017210;28;20421;-67
2024/04/01 12:48:14;;;;;;;0.22;0.00;;;12.10;98.30;;;;;;5016954;28;20038;-68
2024/04/01 12:50:46;;;;;;;0.55;0.00;;;12.10;98.30;;;;;;5015480;28;21909;-68
2024/04/01 12:53:35;;;;;;;0.03;0.00;;;12.10;98.40;;;;;;5014124;28;20054;-66
2024/04/01 12:56:25;;;;;;;0.00;0.00;;;12.10;98.40;;;;;;4966657;28;20034;-67
2024/04/01 12:59:19;;;;;;;0.32;0.00;;;12.10;98.00;;;;;;4909532;29;20372;-67